This is the latest recevied weather packets stored in our database for station/object DK1ZX-10. If no packets are shown the sender has not sent any weather packets the latest 10 day(s).
| Time | Temp. | Humidity | Pressure | Rain* | Wind** | Luminosity | Snow |
|---|---|---|---|---|---|---|---|
| 1777751371 | 13.89° C | 41% | 1017.9 hPa | - | - | - | - |
| 1777750171 | 15° C | 36% | 1017.8 hPa | - | - | - | - |
| 1777748970 | 16.67° C | 31% | 1017.7 hPa | - | - | - | - |
| 1777747770 | 16.67° C | 30% | 1017.7 hPa | - | - | - | - |
| 1777746570 | 17.78° C | 27% | 1017.6 hPa | - | - | - | - |
| 1777745370 | 19.44° C | 25% | 1017.7 hPa | - | - | - | - |
| 1777744170 | 20.56° C | 23% | 1017.6 hPa | - | - | - | - |
| 1777742970 | 21.67° C | 22% | 1017.7 hPa | - | - | - | - |
| 1777741770 | 22.22° C | 21% | 1017.8 hPa | - | - | - | - |
| 1777740570 | 22.78° C | 20% | 1017.9 hPa | - | - | - | - |
| 1777739370 | 23.33° C | 20% | 1018 hPa | - | - | - | - |
| 1777738170 | 23.89° C | 19% | 1018.3 hPa | - | - | - | - |
| 1777736970 | 23.89° C | 19% | 1018.5 hPa | - | - | - | - |
| 1777735770 | 24.44° C | 19% | 1018.7 hPa | - | - | - | - |
| 1777734569 | 23.89° C | 19% | 1018.8 hPa | - | - | - | - |
| 1777733369 | 24.44° C | 18% | 1019.1 hPa | - | - | - | - |
| 1777732169 | 24.44° C | 20% | 1019.4 hPa | - | - | - | - |
| 1777730969 | 24.44° C | 20% | 1019.6 hPa | - | - | - | - |
| 1777729769 | 23.89° C | 21% | 1019.7 hPa | - | - | - | - |
| 1777728569 | 23.89° C | 21% | 1020.1 hPa | - | - | - | - |
| 1777727369 | 23.33° C | 21% | 1020.4 hPa | - | - | - | - |
| 1777726169 | 23.33° C | 23% | 1020.6 hPa | - | - | - | - |
| 1777724969 | 23.33° C | 22% | 1020.9 hPa | - | - | - | - |
| 1777723769 | 22.78° C | 21% | 1021.2 hPa | - | - | - | - |
| 1777722569 | 22.78° C | 22% | 1021.6 hPa | - | - | - | - |
* Rain since midnight (hover to see other rain measurements)
** Current wind speed in m/s (hover to see current wind gust speed)